Terminal Aerodrome Forecast
Issued by NWS Cleveland, OH

Home | Current Version | Previous Version | Graphics & Text | Print | Product List | Glossary On
Versions: 1 2 3 4 5 6 7 8 9 10 11 12 13 14
000
FTUS41 KCLE 250524
TAFYNG
TAF
KYNG 250524Z 2506/2606 VRB04KT P6SM BKN250
     FM251800 22008KT P6SM SCT040 BKN150 PROB30 2602/2606 -TSRA
      BKN040CB=

USA.gov is the U.S. government's official web portal to all federal, state and local government web resources and services.